sensor_id;sensor_type;location;lat;lon;timestamp;pressure;altitude;pressure_sealevel;temperature;humidity
61394;BME280;48555;50.952;-0.120;2023-02-04T00:00:14;103073.66;;;11.21;73.19
61394;BME280;48555;50.952;-0.120;2023-02-04T00:02:41;103069.50;;;11.16;73.07
61394;BME280;48555;50.952;-0.120;2023-02-04T00:05:08;103067.66;;;11.18;73.31
61394;BME280;48555;50.952;-0.120;2023-02-04T00:07:33;103062.50;;;11.16;73.49
61394;BME280;48555;50.952;-0.120;2023-02-04T00:09:59;103068.56;;;11.17;73.51
61394;BME280;48555;50.952;-0.120;2023-02-04T00:12:24;103070.22;;;11.19;73.59
61394;BME280;48555;50.952;-0.120;2023-02-04T00:14:49;103072.72;;;11.22;73.73
61394;BME280;48555;50.952;-0.120;2023-02-04T00:17:15;103068.34;;;11.23;73.91
61394;BME280;48555;50.952;-0.120;2023-02-04T00:19:40;103070.84;;;11.26;74.31
61394;BME280;48555;50.952;-0.120;2023-02-04T00:22:07;103072.56;;;11.27;74.19
61394;BME280;48555;50.952;-0.120;2023-02-04T00:24:36;103073.44;;;11.27;74.40
61394;BME280;48555;50.952;-0.120;2023-02-04T00:27:02;103071.69;;;11.26;74.56
61394;BME280;48555;50.952;-0.120;2023-02-04T00:29:28;103072.50;;;11.28;74.96
61394;BME280;48555;50.952;-0.120;2023-02-04T00:31:53;103073.31;;;11.30;75.07
61394;BME280;48555;50.952;-0.120;2023-02-04T00:34:19;103079.41;;;11.31;75.56
61394;BME280;48555;50.952;-0.120;2023-02-04T00:36:44;103076.75;;;11.32;75.66
61394;BME280;48555;50.952;-0.120;2023-02-04T00:39:10;103069.59;;;11.36;75.81
61394;BME280;48555;50.952;-0.120;2023-02-04T00:41:35;103071.25;;;11.39;75.89
61394;BME280;48555;50.952;-0.120;2023-02-04T00:44:01;103054.97;;;11.30;76.04
61394;BME280;48555;50.952;-0.120;2023-02-04T00:46:26;103066.69;;;11.44;76.25
61394;BME280;48555;50.952;-0.120;2023-02-04T00:48:51;103071.88;;;11.45;76.19
61394;BME280;48555;50.952;-0.120;2023-02-04T00:51:16;103066.56;;;11.47;76.48
61394;BME280;48555;50.952;-0.120;2023-02-04T00:53:42;103077.84;;;11.49;76.54
61394;BME280;48555;50.952;-0.120;2023-02-04T00:56:07;103070.91;;;11.48;76.61
61394;BME280;48555;50.952;-0.120;2023-02-04T00:58:32;103070.91;;;11.48;76.52
61394;BME280;48555;50.952;-0.120;2023-02-04T01:00:58;103070.94;;;11.46;76.66
61394;BME280;48555;50.952;-0.120;2023-02-04T01:03:23;103082.16;;;11.50;76.78
61394;BME280;48555;50.952;-0.120;2023-02-04T01:05:49;103077.13;;;11.45;76.53
61394;BME280;48555;50.952;-0.120;2023-02-04T01:08:14;103089.38;;;11.45;76.87
61394;BME280;48555;50.952;-0.120;2023-02-04T01:10:39;103094.66;;;11.43;76.72
61394;BME280;48555;50.952;-0.120;2023-02-04T01:13:05;103079.84;;;11.42;76.71
61394;BME280;48555;50.952;-0.120;2023-02-04T01:15:33;103084.38;;;11.39;76.83
61394;BME280;48555;50.952;-0.120;2023-02-04T01:17:58;103094.16;;;11.33;76.97
61394;BME280;48555;50.952;-0.120;2023-02-04T01:20:24;103091.47;;;11.35;77.17
61394;BME280;48555;50.952;-0.120;2023-02-04T01:22:49;103089.66;;;11.37;77.33
61394;BME280;48555;50.952;-0.120;2023-02-04T01:25:14;103086.09;;;11.38;77.22
61394;BME280;48555;50.952;-0.120;2023-02-04T01:27:40;103087.88;;;11.37;77.52
61394;BME280;48555;50.952;-0.120;2023-02-04T01:30:06;103101.81;;;11.38;77.54
61394;BME280;48555;50.952;-0.120;2023-02-04T01:32:31;103097.56;;;11.35;77.44
61394;BME280;48555;50.952;-0.120;2023-02-04T01:34:57;103108.91;;;11.36;77.69
61394;BME280;48555;50.952;-0.120;2023-02-04T01:37:22;103103.69;;;11.34;77.78
61394;BME280;48555;50.952;-0.120;2023-02-04T01:39:47;103105.31;;;11.39;77.71
61394;BME280;48555;50.952;-0.120;2023-02-04T01:42:14;103103.53;;;11.39;77.73
61394;BME280;48555;50.952;-0.120;2023-02-04T01:44:39;103113.84;;;11.44;77.85
61394;BME280;48555;50.952;-0.120;2023-02-04T01:47:05;103100.75;;;11.44;77.89
61394;BME280;48555;50.952;-0.120;2023-02-04T01:49:30;103114.72;;;11.44;78.09
61394;BME280;48555;50.952;-0.120;2023-02-04T01:51:56;103106.94;;;11.41;77.98
61394;BME280;48555;50.952;-0.120;2023-02-04T01:54:21;103116.47;;;11.44;77.77
61394;BME280;48555;50.952;-0.120;2023-02-04T01:56:48;103117.34;;;11.44;78.06
61394;BME280;48555;50.952;-0.120;2023-02-04T01:59:16;103115.69;;;11.42;77.95
61394;BME280;48555;50.952;-0.120;2023-02-04T02:01:43;103118.19;;;11.45;78.29
61394;BME280;48555;50.952;-0.120;2023-02-04T02:04:12;103123.44;;;11.45;78.20
61394;BME280;48555;50.952;-0.120;2023-02-04T02:06:41;103110.47;;;11.40;78.38
61394;BME280;48555;50.952;-0.120;2023-02-04T02:09:07;103124.38;;;11.42;78.02
61394;BME280;48555;50.952;-0.120;2023-02-04T02:11:32;103115.56;;;11.45;78.37
61394;BME280;48555;50.952;-0.120;2023-02-04T02:13:58;103109.53;;;11.43;78.06
61394;BME280;48555;50.952;-0.120;2023-02-04T02:16:24;103112.13;;;11.43;78.37
61394;BME280;48555;50.952;-0.120;2023-02-04T02:18:50;103113.06;;;11.42;78.45
61394;BME280;48555;50.952;-0.120;2023-02-04T02:21:25;103115.72;;;11.40;78.32
61394;BME280;48555;50.952;-0.120;2023-02-04T02:23:55;103110.56;;;11.39;78.53
61394;BME280;48555;50.952;-0.120;2023-02-04T02:26:25;103110.56;;;11.39;78.35
61394;BME280;48555;50.952;-0.120;2023-02-04T02:28:51;103114.81;;;11.41;78.64
61394;BME280;48555;50.952;-0.120;2023-02-04T02:31:19;103111.34;;;11.41;78.28
61394;BME280;48555;50.952;-0.120;2023-02-04T02:33:45;103110.47;;;11.40;78.66
61394;BME280;48555;50.952;-0.120;2023-02-04T02:36:11;103108.81;;;11.37;78.41
61394;BME280;48555;50.952;-0.120;2023-02-04T02:38:37;103100.13;;;11.37;78.64
61394;BME280;48555;50.952;-0.120;2023-02-04T02:41:03;103099.16;;;11.40;78.44
61394;BME280;48555;50.952;-0.120;2023-02-04T02:43:29;103099.31;;;11.35;78.66
61394;BME280;48555;50.952;-0.120;2023-02-04T02:45:59;103100.97;;;11.37;78.75
61394;BME280;48555;50.952;-0.120;2023-02-04T02:48:25;103097.56;;;11.35;78.65
61394;BME280;48555;50.952;-0.120;2023-02-04T02:50:51;103106.09;;;11.41;78.82
61394;BME280;48555;50.952;-0.120;2023-02-04T02:53:18;103103.47;;;11.41;78.80
61394;BME280;48555;50.952;-0.120;2023-02-04T02:55:45;103102.63;;;11.40;78.76
61394;BME280;48555;50.952;-0.120;2023-02-04T02:58:30;103105.09;;;11.45;78.80
61394;BME280;48555;50.952;-0.120;2023-02-04T03:01:01;103111.19;;;11.45;78.63
61394;BME280;48555;50.952;-0.120;2023-02-04T03:03:30;103104.41;;;11.40;78.69
61394;BME280;48555;50.952;-0.120;2023-02-04T03:06:01;103107.75;;;11.43;79.03
61394;BME280;48555;50.952;-0.120;2023-02-04T03:08:28;103117.38;;;11.43;79.00
61394;BME280;48555;50.952;-0.120;2023-02-04T03:10:54;103098.31;;;11.39;79.00
61394;BME280;48555;50.952;-0.120;2023-02-04T03:13:20;103109.53;;;11.43;79.11
61394;BME280;48555;50.952;-0.120;2023-02-04T03:15:46;103103.47;;;11.41;79.18
61394;BME280;48555;50.952;-0.120;2023-02-04T03:18:14;103107.00;;;11.40;79.17
61394;BME280;48555;50.952;-0.120;2023-02-04T03:20:40;103102.63;;;11.40;79.39
61394;BME280;48555;50.952;-0.120;2023-02-04T03:23:07;103101.81;;;11.38;79.27
61394;BME280;48555;50.952;-0.120;2023-02-04T03:25:32;103101.78;;;11.40;79.30
61394;BME280;48555;50.952;-0.120;2023-02-04T03:27:58;103101.69;;;11.41;79.46
61394;BME280;48555;50.952;-0.120;2023-02-04T03:30:24;103105.13;;;11.43;79.29
61394;BME280;48555;50.952;-0.120;2023-02-04T03:32:50;103108.44;;;11.48;79.45
61394;BME280;48555;50.952;-0.120;2023-02-04T03:35:16;103099.66;;;11.49;79.28
61394;BME280;48555;50.952;-0.120;2023-02-04T03:37:42;103101.38;;;11.50;79.18
61394;BME280;48555;50.952;-0.120;2023-02-04T03:40:09;103092.75;;;11.47;79.22
61394;BME280;48555;50.952;-0.120;2023-02-04T03:42:34;103080.66;;;11.44;79.17
61394;BME280;48555;50.952;-0.120;2023-02-04T03:45:00;103093.31;;;11.55;79.21
61394;BME280;48555;50.952;-0.120;2023-02-04T03:47:25;103096.88;;;11.54;79.34
61394;BME280;48555;50.952;-0.120;2023-02-04T03:49:50;103099.53;;;11.52;79.32
61394;BME280;48555;50.952;-0.120;2023-02-04T03:52:16;103097.88;;;11.50;79.54
61394;BME280;48555;50.952;-0.120;2023-02-04T03:54:41;103080.47;;;11.49;79.56
61394;BME280;48555;50.952;-0.120;2023-02-04T03:57:06;103093.31;;;11.55;79.12
61394;BME280;48555;50.952;-0.120;2023-02-04T03:59:32;103094.19;;;11.55;79.58
61394;BME280;48555;50.952;-0.120;2023-02-04T04:01:57;103095.09;;;11.54;79.36
61394;BME280;48555;50.952;-0.120;2023-02-04T04:04:22;103090.78;;;11.53;79.59
61394;BME280;48555;50.952;-0.120;2023-02-04T04:06:48;103081.16;;;11.54;79.45
61394;BME280;48555;50.952;-0.120;2023-02-04T04:09:13;103084.66;;;11.53;79.51
61394;BME280;48555;50.952;-0.120;2023-02-04T04:11:38;103082.84;;;11.55;79.56
61394;BME280;48555;50.952;-0.120;2023-02-04T04:14:04;103088.09;;;11.55;79.58
61394;BME280;48555;50.952;-0.120;2023-02-04T04:16:29;103092.59;;;11.51;79.83
61394;BME280;48555;50.952;-0.120;2023-02-04T04:18:54;103096.13;;;11.50;79.81
61394;BME280;48555;50.952;-0.120;2023-02-04T04:21:20;103103.81;;;11.55;79.55
61394;BME280;48555;50.952;-0.120;2023-02-04T04:23:45;103101.31;;;11.52;80.03
61394;BME280;48555;50.952;-0.120;2023-02-04T04:26:11;103104.66;;;11.55;79.82
61394;BME280;48555;50.952;-0.120;2023-02-04T04:28:36;103107.34;;;11.54;79.83
61394;BME280;48555;50.952;-0.120;2023-02-04T04:31:02;103108.19;;;11.54;79.78
61394;BME280;48555;50.952;-0.120;2023-02-04T04:33:27;103105.75;;;11.50;79.81
61394;BME280;48555;50.952;-0.120;2023-02-04T04:35:52;103123.06;;;11.54;79.77
61394;BME280;48555;50.952;-0.120;2023-02-04T04:38:18;103122.22;;;11.53;79.73
61394;BME280;48555;50.952;-0.120;2023-02-04T04:40:43;103121.41;;;11.51;79.62
61394;BME280;48555;50.952;-0.120;2023-02-04T04:43:08;103119.72;;;11.50;79.64
61394;BME280;48555;50.952;-0.120;2023-02-04T04:45:34;103118.06;;;11.48;79.92
61394;BME280;48555;50.952;-0.120;2023-02-04T04:47:59;103130.25;;;11.49;79.67
61394;BME280;48555;50.952;-0.120;2023-02-04T04:50:24;103132.97;;;11.46;80.01
61394;BME280;48555;50.952;-0.120;2023-02-04T04:52:50;103133.06;;;11.44;79.97
61394;BME280;48555;50.952;-0.120;2023-02-04T04:55:15;103136.53;;;11.45;79.87
61394;BME280;48555;50.952;-0.120;2023-02-04T04:57:41;103138.22;;;11.46;80.15
61394;BME280;48555;50.952;-0.120;2023-02-04T05:00:08;103137.38;;;11.45;80.08
61394;BME280;48555;50.952;-0.120;2023-02-04T05:02:36;103128.00;;;11.38;79.81
61394;BME280;48555;50.952;-0.120;2023-02-04T05:05:01;103140.84;;;11.46;80.08
61394;BME280;48555;50.952;-0.120;2023-02-04T05:07:26;103143.53;;;11.44;79.93
61394;BME280;48555;50.952;-0.120;2023-02-04T05:09:52;103141.75;;;11.45;80.03
61394;BME280;48555;50.952;-0.120;2023-02-04T05:12:17;103146.16;;;11.44;80.19
61394;BME280;48555;50.952;-0.120;2023-02-04T05:14:42;103147.00;;;11.45;79.93
61394;BME280;48555;50.952;-0.120;2023-02-04T05:17:08;103144.28;;;11.48;80.13
61394;BME280;48555;50.952;-0.120;2023-02-04T05:19:33;103149.41;;;11.51;80.06
61394;BME280;48555;50.952;-0.120;2023-02-04T05:21:58;103150.09;;;11.56;79.75
61394;BME280;48555;50.952;-0.120;2023-02-04T05:24:26;103145.75;;;11.55;79.94
61394;BME280;48555;50.952;-0.120;2023-02-04T05:26:51;103142.28;;;11.54;79.66
61394;BME280;48555;50.952;-0.120;2023-02-04T05:29:16;103144.84;;;11.56;79.62
61394;BME280;48555;50.952;-0.120;2023-02-04T05:31:42;103157.06;;;11.55;79.53
61394;BME280;48555;50.952;-0.120;2023-02-04T05:34:07;103151.09;;;11.52;79.59
61394;BME280;48555;50.952;-0.120;2023-02-04T05:36:32;103152.91;;;11.50;79.78
61394;BME280;48555;50.952;-0.120;2023-02-04T05:38:58;103152.91;;;11.50;79.68
61394;BME280;48555;50.952;-0.120;2023-02-04T05:41:23;103159.91;;;11.49;79.90
61394;BME280;48555;50.952;-0.120;2023-02-04T05:43:48;103147.84;;;11.45;79.68
61394;BME280;48555;50.952;-0.120;2023-02-04T05:46:14;103151.44;;;11.43;79.81
61394;BME280;48555;50.952;-0.120;2023-02-04T05:48:39;103150.63;;;11.41;80.23
61394;BME280;48555;50.952;-0.120;2023-02-04T05:51:04;103151.59;;;11.38;79.98
61394;BME280;48555;50.952;-0.120;2023-02-04T05:53:30;103160.34;;;11.39;79.99
61394;BME280;48555;50.952;-0.120;2023-02-04T05:55:56;103156.84;;;11.38;80.12
61394;BME280;48555;50.952;-0.120;2023-02-04T05:58:21;103158.66;;;11.36;79.84
61394;BME280;48555;50.952;-0.120;2023-02-04T06:00:46;103163.09;;;11.34;80.14
61394;BME280;48555;50.952;-0.120;2023-02-04T06:03:12;103150.13;;;11.31;80.19
61394;BME280;48555;50.952;-0.120;2023-02-04T06:05:38;103161.44;;;11.31;80.04
61394;BME280;48555;50.952;-0.120;2023-02-04T06:08:04;103153.66;;;11.30;80.09
61394;BME280;48555;50.952;-0.120;2023-02-04T06:10:29;103157.88;;;11.34;79.94
61394;BME280;48555;50.952;-0.120;2023-02-04T06:12:55;103164.03;;;11.33;79.87
61394;BME280;48555;50.952;-0.120;2023-02-04T06:15:20;103164.91;;;11.32;80.01
61394;BME280;48555;50.952;-0.120;2023-02-04T06:17:45;103166.56;;;11.34;80.06
61394;BME280;48555;50.952;-0.120;2023-02-04T06:20:13;103168.34;;;11.34;79.79
61394;BME280;48555;50.952;-0.120;2023-02-04T06:22:38;103167.50;;;11.33;79.91
61394;BME280;48555;50.952;-0.120;2023-02-04T06:25:04;103158.09;;;11.28;80.26
61394;BME280;48555;50.952;-0.120;2023-02-04T06:27:30;103170.97;;;11.34;80.13
61394;BME280;48555;50.952;-0.120;2023-02-04T06:29:55;103170.13;;;11.33;79.98
61394;BME280;48555;50.952;-0.120;2023-02-04T06:32:21;103171.94;;;11.31;80.06
61394;BME280;48555;50.952;-0.120;2023-02-04T06:34:47;103174.38;;;11.36;80.24
61394;BME280;48555;50.952;-0.120;2023-02-04T06:37:13;103172.72;;;11.33;80.05
61394;BME280;48555;50.952;-0.120;2023-02-04T06:39:40;103172.72;;;11.33;79.79
61394;BME280;48555;50.952;-0.120;2023-02-04T06:42:05;103182.19;;;11.37;79.92
61394;BME280;48555;50.952;-0.120;2023-02-04T06:44:30;103184.03;;;11.35;79.98
61394;BME280;48555;50.952;-0.120;2023-02-04T06:46:56;103182.28;;;11.34;79.97
61394;BME280;48555;50.952;-0.120;2023-02-04T06:49:21;103175.50;;;11.29;80.36
61394;BME280;48555;50.952;-0.120;2023-02-04T06:51:49;103178.94;;;11.31;80.18
61394;BME280;48555;50.952;-0.120;2023-02-04T06:54:14;103184.13;;;11.32;80.09
61394;BME280;48555;50.952;-0.120;2023-02-04T06:56:40;103181.44;;;11.34;80.16
61394;BME280;48555;50.952;-0.120;2023-02-04T06:59:08;103178.81;;;11.34;79.89
61394;BME280;48555;50.952;-0.120;2023-02-04T07:01:33;103188.44;;;11.33;79.89
61394;BME280;48555;50.952;-0.120;2023-02-04T07:03:58;103178.94;;;11.31;79.88
61394;BME280;48555;50.952;-0.120;2023-02-04T07:06:24;103192.00;;;11.32;80.00
61394;BME280;48555;50.952;-0.120;2023-02-04T07:08:49;103196.34;;;11.32;79.96
61394;BME280;48555;50.952;-0.120;2023-02-04T07:11:14;103189.44;;;11.29;80.17
61394;BME280;48555;50.952;-0.120;2023-02-04T07:13:40;103190.25;;;11.31;80.12
61394;BME280;48555;50.952;-0.120;2023-02-04T07:16:06;103191.91;;;11.34;80.27
61394;BME280;48555;50.952;-0.120;2023-02-04T07:18:32;103186.75;;;11.32;80.06
61394;BME280;48555;50.952;-0.120;2023-02-04T07:20:57;103191.88;;;11.35;80.08
61394;BME280;48555;50.952;-0.120;2023-02-04T07:23:22;103188.44;;;11.33;80.26
61394;BME280;48555;50.952;-0.120;2023-02-04T07:25:49;103189.44;;;11.29;79.97
61394;BME280;48555;50.952;-0.120;2023-02-04T07:28:17;103209.44;;;11.32;80.18
61394;BME280;48555;50.952;-0.120;2023-02-04T07:30:42;103213.84;;;11.31;80.12
61394;BME280;48555;50.952;-0.120;2023-02-04T07:33:08;103213.78;;;11.33;79.98
61394;BME280;48555;50.952;-0.120;2023-02-04T07:35:33;103208.59;;;11.31;80.15
61394;BME280;48555;50.952;-0.120;2023-02-04T07:37:58;103206.09;;;11.28;80.00
61394;BME280;48555;50.952;-0.120;2023-02-04T07:40:24;103209.53;;;11.30;80.30
61394;BME280;48555;50.952;-0.120;2023-02-04T07:42:49;103210.38;;;11.31;80.13
61394;BME280;48555;50.952;-0.120;2023-02-04T07:45:15;103207.84;;;11.28;80.07
61394;BME280;48555;50.952;-0.120;2023-02-04T07:47:40;103211.28;;;11.30;80.06
61394;BME280;48555;50.952;-0.120;2023-02-04T07:50:05;103213.13;;;11.26;80.11
61394;BME280;48555;50.952;-0.120;2023-02-04T07:52:31;103218.44;;;11.25;80.36
61394;BME280;48555;50.952;-0.120;2023-02-04T07:54:56;103221.09;;;11.23;80.43
61394;BME280;48555;50.952;-0.120;2023-02-04T07:57:21;103217.69;;;11.21;80.75
61394;BME280;48555;50.952;-0.120;2023-02-04T07:59:47;103219.38;;;11.24;80.79
61394;BME280;48555;50.952;-0.120;2023-02-04T08:02:12;103227.22;;;11.24;80.70
61394;BME280;48555;50.952;-0.120;2023-02-04T08:04:37;103224.53;;;11.25;80.42
61394;BME280;48555;50.952;-0.120;2023-02-04T08:07:03;103225.38;;;11.26;80.66
61394;BME280;48555;50.952;-0.120;2023-02-04T08:09:29;103227.97;;;11.27;80.70
61394;BME280;48555;50.952;-0.120;2023-02-04T08:11:54;103225.22;;;11.30;80.48
61394;BME280;48555;50.952;-0.120;2023-02-04T08:14:20;103227.78;;;11.32;80.48
61394;BME280;48555;50.952;-0.120;2023-02-04T08:16:45;103232.13;;;11.33;80.30
61394;BME280;48555;50.952;-0.120;2023-02-04T08:19:11;103236.44;;;11.34;80.36
61394;BME280;48555;50.952;-0.120;2023-02-04T08:21:43;103236.56;;;11.31;80.62
61394;BME280;48555;50.952;-0.120;2023-02-04T08:24:08;103238.47;;;11.26;80.82
61394;BME280;48555;50.952;-0.120;2023-02-04T08:26:34;103239.22;;;11.29;80.90
61394;BME280;48555;50.952;-0.120;2023-02-04T08:28:59;103243.59;;;11.29;80.98
61394;BME280;48555;50.952;-0.120;2023-02-04T08:31:24;103250.56;;;11.30;80.90
61394;BME280;48555;50.952;-0.120;2023-02-04T08:33:50;103250.47;;;11.33;80.92
61394;BME280;48555;50.952;-0.120;2023-02-04T08:36:15;103258.25;;;11.34;81.11
61394;BME280;48555;50.952;-0.120;2023-02-04T08:38:40;103261.59;;;11.40;81.02
61394;BME280;48555;50.952;-0.120;2023-02-04T08:41:06;103253.66;;;11.41;80.83
61394;BME280;48555;50.952;-0.120;2023-02-04T08:43:31;103261.38;;;11.46;80.86
61394;BME280;48555;50.952;-0.120;2023-02-04T08:45:56;103261.22;;;11.50;80.44
61394;BME280;48555;50.952;-0.120;2023-02-04T08:48:22;103259.34;;;11.54;80.55
61394;BME280;48555;50.952;-0.120;2023-02-04T08:50:47;103264.41;;;11.58;80.48
61394;BME280;48555;50.952;-0.120;2023-02-04T08:53:12;103272.09;;;11.63;80.39
61394;BME280;48555;50.952;-0.120;2023-02-04T08:55:38;103256.72;;;11.54;80.22
61394;BME280;48555;50.952;-0.120;2023-02-04T08:58:03;103276.31;;;11.67;80.39
61394;BME280;48555;50.952;-0.120;2023-02-04T09:00:28;103280.59;;;11.70;80.05
61394;BME280;48555;50.952;-0.120;2023-02-04T09:02:54;103279.53;;;11.75;79.92
61394;BME280;48555;50.952;-0.120;2023-02-04T09:05:19;103281.16;;;11.79;80.12
61394;BME280;48555;50.952;-0.120;2023-02-04T09:07:45;103287.16;;;11.81;79.93
61394;BME280;48555;50.952;-0.120;2023-02-04T09:10:10;103287.06;;;11.85;79.87
61394;BME280;48555;50.952;-0.120;2023-02-04T09:12:35;103287.03;;;11.86;79.69
61394;BME280;48555;50.952;-0.120;2023-02-04T09:15:01;103289.56;;;11.89;79.72
61394;BME280;48555;50.952;-0.120;2023-02-04T09:17:26;103291.94;;;11.95;79.63
61394;BME280;48555;50.952;-0.120;2023-02-04T09:19:52;103295.41;;;11.96;79.73
61394;BME280;48555;50.952;-0.120;2023-02-04T09:22:17;103287.66;;;11.93;79.62
61394;BME280;48555;50.952;-0.120;2023-02-04T09:24:42;103297.19;;;11.95;79.67
61394;BME280;48555;50.952;-0.120;2023-02-04T09:27:08;103289.47;;;11.91;79.69
61394;BME280;48555;50.952;-0.120;2023-02-04T09:29:33;103293.59;;;11.98;79.66
61394;BME280;48555;50.952;-0.120;2023-02-04T09:31:58;103291.69;;;12.03;79.59
61394;BME280;48555;50.952;-0.120;2023-02-04T09:34:24;103288.97;;;12.04;79.23
61394;BME280;48555;50.952;-0.120;2023-02-04T09:36:49;103290.78;;;12.02;78.91
61394;BME280;48555;50.952;-0.120;2023-02-04T09:39:14;103296.72;;;12.08;79.10
61394;BME280;48555;50.952;-0.120;2023-02-04T09:41:41;103294.00;;;12.11;78.95
61394;BME280;48555;50.952;-0.120;2023-02-04T09:44:12;103295.66;;;12.13;78.80
61394;BME280;48555;50.952;-0.120;2023-02-04T09:46:38;103293.75;;;12.17;78.81
61394;BME280;48555;50.952;-0.120;2023-02-04T09:49:05;103298.13;;;12.18;78.46
61394;BME280;48555;50.952;-0.120;2023-02-04T09:51:34;103303.25;;;12.21;78.23
61394;BME280;48555;50.952;-0.120;2023-02-04T09:54:06;103311.03;;;12.22;78.33
61394;BME280;48555;50.952;-0.120;2023-02-04T09:56:32;103272.09;;;12.12;78.31
61394;BME280;48555;50.952;-0.120;2023-02-04T09:58:58;103303.75;;;12.31;78.34
61394;BME280;48555;50.952;-0.120;2023-02-04T10:01:25;103308.88;;;12.34;78.01
61394;BME280;48555;50.952;-0.120;2023-02-04T10:03:52;103305.31;;;12.35;77.72
61394;BME280;48555;50.952;-0.120;2023-02-04T10:06:22;103300.03;;;12.36;77.54
61394;BME280;48555;50.952;-0.120;2023-02-04T10:08:49;103306.97;;;12.37;77.69
61394;BME280;48555;50.952;-0.120;2023-02-04T10:11:16;103310.41;;;12.39;77.65
61394;BME280;48555;50.952;-0.120;2023-02-04T10:13:44;103315.41;;;12.45;77.27
61394;BME280;48555;50.952;-0.120;2023-02-04T10:16:16;103307.59;;;12.44;77.27
61394;BME280;48555;50.952;-0.120;2023-02-04T10:18:42;103325.84;;;12.47;76.98
61394;BME280;48555;50.952;-0.120;2023-02-04T10:21:20;103325.97;;;12.44;76.74
61394;BME280;48555;50.952;-0.120;2023-02-04T10:23:53;103326.84;;;12.44;76.33
61394;BME280;48555;50.952;-0.120;2023-02-04T10:26:20;103327.69;;;12.45;76.21
61394;BME280;48555;50.952;-0.120;2023-02-04T10:28:46;103326.75;;;12.46;75.99
61394;BME280;48555;50.952;-0.120;2023-02-04T10:31:40;103331.78;;;12.52;76.06
61394;BME280;48555;50.952;-0.120;2023-02-04T10:34:08;103334.13;;;12.60;76.03
61394;BME280;48555;50.952;-0.120;2023-02-04T10:36:35;103334.91;;;12.62;75.88
61394;BME280;48555;50.952;-0.120;2023-02-04T10:39:21;103339.13;;;12.66;75.94
61394;BME280;48555;50.952;-0.120;2023-02-04T10:42:04;103334.31;;;12.77;75.85
61394;BME280;48555;50.952;-0.120;2023-02-04T10:44:32;103338.47;;;12.83;75.37
61394;BME280;48555;50.952;-0.120;2023-02-04T10:47:03;103341.81;;;12.86;75.00
61394;BME280;48555;50.952;-0.120;2023-02-04T10:49:28;103338.13;;;12.90;74.97
61394;BME280;48555;50.952;-0.120;2023-02-04T10:51:54;103338.81;;;12.95;74.97
61394;BME280;48555;50.952;-0.120;2023-02-04T10:54:27;103342.00;;;13.04;75.05
61394;BME280;48555;50.952;-0.120;2023-02-04T10:59:45;103343.00;;;13.22;74.36
61394;BME280;48555;50.952;-0.120;2023-02-04T11:02:35;103347.13;;;13.29;74.34
61394;BME280;48555;50.952;-0.120;2023-02-04T11:05:02;103344.22;;;13.35;73.85
61394;BME280;48555;50.952;-0.120;2023-02-04T11:07:28;103343.06;;;13.42;73.02
61394;BME280;48555;50.952;-0.120;2023-02-04T11:09:55;103345.44;;;13.48;73.08
61394;BME280;48555;50.952;-0.120;2023-02-04T11:13:18;103347.81;;;13.54;72.99
61394;BME280;48555;50.952;-0.120;2023-02-04T11:15:45;103349.31;;;13.60;72.44
61394;BME280;48555;50.952;-0.120;2023-02-04T11:20:46;103351.72;;;13.64;71.65
61394;BME280;48555;50.952;-0.120;2023-02-04T11:23:37;103355.16;;;13.67;71.39
61394;BME280;48555;50.952;-0.120;2023-02-04T11:33:44;103350.59;;;13.70;70.66
61394;BME280;48555;50.952;-0.120;2023-02-04T11:36:11;103343.78;;;13.66;70.35
61394;BME280;48555;50.952;-0.120;2023-02-04T11:38:39;103345.63;;;13.64;70.23
61394;BME280;48555;50.952;-0.120;2023-02-04T11:41:15;103345.84;;;13.59;70.15
61394;BME280;48555;50.952;-0.120;2023-02-04T11:43:42;103349.50;;;13.55;69.87
61394;BME280;48555;50.952;-0.120;2023-02-04T11:46:16;103344.44;;;13.51;68.96
61394;BME280;48555;50.952;-0.120;2023-02-04T11:48:42;103347.41;;;13.43;68.12
61394;BME280;48555;50.952;-0.120;2023-02-04T11:51:11;103342.47;;;13.35;67.99
61394;BME280;48555;50.952;-0.120;2023-02-04T11:53:38;103340.97;;;13.30;67.86
61394;BME280;48555;50.952;-0.120;2023-02-04T11:56:03;103343.59;;;13.30;67.97
61394;BME280;48555;50.952;-0.120;2023-02-04T11:58:30;103329.56;;;13.29;67.94
61394;BME280;48555;50.952;-0.120;2023-02-04T12:00:56;103333.97;;;13.29;68.00
61394;BME280;48555;50.952;-0.120;2023-02-04T12:03:28;103334.91;;;13.28;68.05
61394;BME280;48555;50.952;-0.120;2023-02-04T12:05:58;103332.31;;;13.26;68.12
61394;BME280;48555;50.952;-0.120;2023-02-04T12:08:31;103338.50;;;13.25;67.81
61394;BME280;48555;50.952;-0.120;2023-02-04T12:11:09;103336.09;;;13.19;67.71
61394;BME280;48555;50.952;-0.120;2023-02-04T12:13:46;103335.31;;;13.17;67.51
61394;BME280;48555;50.952;-0.120;2023-02-04T12:16:13;103331.78;;;13.18;67.46
61394;BME280;48555;50.952;-0.120;2023-02-04T12:18:39;103338.72;;;13.19;67.54
61394;BME280;48555;50.952;-0.120;2023-02-04T12:21:04;103339.47;;;13.23;67.70
61394;BME280;48555;50.952;-0.120;2023-02-04T12:23:30;103334.09;;;13.26;67.60
61394;BME280;48555;50.952;-0.120;2023-02-04T12:25:56;103340.03;;;13.31;67.64
61394;BME280;48555;50.952;-0.120;2023-02-04T12:28:22;103333.72;;;13.35;67.44
61394;BME280;48555;50.952;-0.120;2023-02-04T12:30:47;103338.78;;;13.39;67.26
61394;BME280;48555;50.952;-0.120;2023-02-04T12:33:13;103335.19;;;13.42;67.12
61394;BME280;48555;50.952;-0.120;2023-02-04T12:35:38;103333.31;;;13.44;67.00
61394;BME280;48555;50.952;-0.120;2023-02-04T12:38:04;103337.69;;;13.45;66.44
61394;BME280;48555;50.952;-0.120;2023-02-04T12:40:29;103335.19;;;13.42;66.41
61394;BME280;48555;50.952;-0.120;2023-02-04T12:42:55;103341.22;;;13.44;66.49
61394;BME280;48555;50.952;-0.120;2023-02-04T12:45:20;103334.34;;;13.42;66.35
61394;BME280;48555;50.952;-0.120;2023-02-04T12:47:46;103331.63;;;13.43;66.35
61394;BME280;48555;50.952;-0.120;2023-02-04T12:50:14;103338.47;;;13.47;66.23